createdAt,value
2018-06-16T00:00:57.097Z,14.00
2018-06-16T00:03:27.142Z,13.90
2018-06-16T00:05:56.432Z,13.80
2018-06-16T00:08:26.294Z,13.70
2018-06-16T00:10:55.559Z,13.60
2018-06-16T00:13:24.739Z,13.50
2018-06-16T00:15:53.797Z,13.50
2018-06-16T00:18:22.891Z,13.50
2018-06-16T00:20:51.983Z,13.50
2018-06-16T00:23:21.100Z,13.60
2018-06-16T00:25:50.468Z,13.60
2018-06-16T00:28:19.619Z,13.70
2018-06-16T00:30:48.745Z,13.70
2018-06-16T00:33:17.759Z,13.70
2018-06-16T00:35:46.868Z,13.70
2018-06-16T00:38:15.838Z,13.70
2018-06-16T00:40:50.601Z,13.60
2018-06-16T00:43:19.661Z,13.60
2018-06-16T00:45:48.923Z,13.60
2018-06-16T00:48:18.233Z,13.50
2018-06-16T00:50:47.348Z,13.50
2018-06-16T00:53:16.468Z,13.40
2018-06-16T00:55:45.537Z,13.40
2018-06-16T00:58:14.668Z,13.30
2018-06-16T01:00:43.762Z,13.30
2018-06-16T01:03:12.956Z,13.30
2018-06-16T01:05:42.026Z,13.30
2018-06-16T01:08:11.159Z,13.30
2018-06-16T01:10:40.107Z,13.30
2018-06-16T01:13:09.201Z,13.30
2018-06-16T01:15:38.644Z,13.20
2018-06-16T01:18:07.712Z,13.20
2018-06-16T01:20:36.820Z,13.20
2018-06-16T01:23:05.993Z,13.20
2018-06-16T01:25:35.028Z,13.20
2018-06-16T01:28:04.082Z,13.20
2018-06-16T01:30:33.952Z,13.20
2018-06-16T01:33:03.017Z,13.20
2018-06-16T01:35:32.087Z,13.20
2018-06-16T01:38:01.197Z,13.20
2018-06-16T01:40:30.331Z,13.20
2018-06-16T01:42:59.612Z,13.20
2018-06-16T01:45:28.663Z,13.20
2018-06-16T01:47:58.810Z,13.20
2018-06-16T01:50:27.837Z,13.20
2018-06-16T01:52:56.873Z,13.10
2018-06-16T01:55:25.884Z,13.10
2018-06-16T01:57:54.962Z,13.10
2018-06-16T02:00:24.075Z,13.00
2018-06-16T02:02:54.420Z,13.00
2018-06-16T02:05:23.921Z,13.00
2018-06-16T02:07:54.029Z,12.90
2018-06-16T02:10:23.123Z,12.80
2018-06-16T02:12:52.220Z,12.80
2018-06-16T02:15:21.296Z,12.80
2018-06-16T02:17:50.426Z,12.80
2018-06-16T02:20:19.980Z,12.80
2018-06-16T02:22:49.124Z,12.80
2018-06-16T02:25:18.185Z,12.90
2018-06-16T02:27:47.332Z,12.90
2018-06-16T02:30:16.376Z,12.90
2018-06-16T02:32:45.361Z,12.90
2018-06-16T02:35:15.423Z,12.90
2018-06-16T02:37:45.580Z,12.90
2018-06-16T02:40:15.555Z,12.90
2018-06-16T02:42:46.394Z,12.80
2018-06-16T02:45:16.796Z,12.80
2018-06-16T02:47:46.855Z,12.80
2018-06-16T02:50:16.932Z,12.80
2018-06-16T02:52:46.953Z,12.80
2018-06-16T02:55:17.098Z,12.70
2018-06-16T02:57:47.612Z,12.70
2018-06-16T03:00:17.599Z,12.70
2018-06-16T03:02:47.676Z,12.70
2018-06-16T03:05:18.036Z,12.70
2018-06-16T03:07:47.189Z,12.60
2018-06-16T03:10:16.542Z,12.60
2018-06-16T03:12:45.685Z,12.50
2018-06-16T03:15:14.775Z,12.40
2018-06-16T03:17:44.677Z,12.30
2018-06-16T03:20:13.737Z,12.30
2018-06-16T03:22:42.856Z,12.20
2018-06-16T03:25:11.932Z,12.10
2018-06-16T03:27:41.060Z,12.10
2018-06-16T03:30:10.120Z,12.10
2018-06-16T03:32:39.756Z,12.10
2018-06-16T03:35:08.851Z,12.20
2018-06-16T03:37:37.917Z,12.20
2018-06-16T03:40:07.060Z,12.20
2018-06-16T03:42:37.047Z,12.20
2018-06-16T03:45:06.308Z,12.20
2018-06-16T03:47:35.448Z,12.20
2018-06-16T03:50:05.260Z,12.20
2018-06-16T03:52:35.060Z,12.30
2018-06-16T03:55:04.686Z,12.30
2018-06-16T03:57:33.772Z,12.30
2018-06-16T04:00:02.847Z,12.30
2018-06-16T04:02:32.009Z,12.40
2018-06-16T04:05:01.400Z,12.40
2018-06-16T04:07:30.744Z,12.50
2018-06-16T04:09:59.864Z,12.50
2018-06-16T04:12:28.932Z,12.50
2018-06-16T04:14:58.180Z,12.60
2018-06-16T04:17:27.249Z,12.60
2018-06-16T04:19:56.527Z,12.60
2018-06-16T04:22:25.939Z,12.70
2018-06-16T04:24:54.933Z,12.70
2018-06-16T04:27:24.040Z,12.80
2018-06-16T04:29:53.960Z,12.80
2018-06-16T04:32:23.069Z,12.90
2018-06-16T04:37:21.153Z,13.00
2018-06-16T04:39:50.102Z,12.90
2018-06-16T04:42:19.208Z,12.90
2018-06-16T04:44:48.320Z,12.90
2018-06-16T04:47:17.389Z,12.80
2018-06-16T04:49:46.533Z,12.80
2018-06-16T04:52:15.604Z,12.80
2018-06-16T04:54:44.926Z,12.70
2018-06-16T04:57:13.896Z,12.70
2018-06-16T04:59:42.993Z,12.80
2018-06-16T05:02:11.949Z,12.80
2018-06-16T05:04:42.212Z,12.80
2018-06-16T05:07:11.300Z,12.90
2018-06-16T05:09:41.112Z,13.00
2018-06-16T05:12:10.120Z,13.10
2018-06-16T05:14:39.179Z,13.20
2018-06-16T05:17:09.109Z,13.30
2018-06-16T05:19:38.251Z,13.40
2018-06-16T05:22:07.456Z,13.40
2018-06-16T05:24:37.021Z,13.40
2018-06-16T05:27:06.006Z,13.50
2018-06-16T05:29:35.097Z,13.50
2018-06-16T05:32:04.621Z,13.60
2018-06-16T05:34:34.207Z,13.70
2018-06-16T05:37:03.648Z,13.80
2018-06-16T05:42:01.250Z,14.00
2018-06-16T05:44:30.420Z,14.00
2018-06-16T05:46:59.475Z,14.10
2018-06-16T05:49:28.590Z,14.30
2018-06-16T05:51:57.661Z,14.40
2018-06-16T05:54:26.680Z,14.50
2018-06-16T05:56:55.773Z,14.60
2018-06-16T05:59:24.838Z,14.70
2018-06-16T06:01:54.064Z,14.90
2018-06-16T06:04:23.057Z,15.00
2018-06-16T06:06:52.060Z,15.10
2018-06-16T06:09:21.137Z,15.20
2018-06-16T06:11:50.241Z,15.30
2018-06-16T06:14:19.239Z,15.50
2018-06-16T06:16:48.298Z,15.60
2018-06-16T06:19:17.319Z,15.70
2018-06-16T06:21:46.421Z,15.80
2018-06-16T06:24:15.520Z,15.90
2018-06-16T06:26:44.495Z,16.00
2018-06-16T06:29:13.498Z,16.10
2018-06-16T06:31:42.581Z,16.20
2018-06-16T06:34:12.223Z,16.30
2018-06-16T06:36:42.078Z,16.40
2018-06-16T06:39:11.250Z,16.50
2018-06-16T06:41:40.623Z,16.50
2018-06-16T06:44:09.996Z,16.60
2018-06-16T06:46:39.701Z,16.80
2018-06-16T06:49:09.364Z,16.80
2018-06-16T06:51:38.565Z,16.90
2018-06-16T06:54:08.073Z,17.10
2018-06-16T06:56:37.137Z,17.10
2018-06-16T06:59:06.412Z,17.20
2018-06-16T07:01:35.498Z,17.40
2018-06-16T07:04:04.698Z,17.40
2018-06-16T07:06:33.632Z,17.50
2018-06-16T07:09:02.804Z,17.60
2018-06-16T07:11:31.921Z,17.70
2018-06-16T07:14:01.433Z,17.90
2018-06-16T07:16:30.727Z,18.00
2018-06-16T07:19:00.393Z,18.10
2018-06-16T07:21:30.323Z,18.30
2018-06-16T07:23:59.400Z,18.40
2018-06-16T07:26:28.964Z,18.50
2018-06-16T07:28:58.217Z,18.60
2018-06-16T07:31:27.356Z,18.80
2018-06-16T07:33:57.173Z,18.90
2018-06-16T07:36:26.317Z,19.00
2018-06-16T07:38:55.343Z,19.10
2018-06-16T07:41:25.172Z,19.20
2018-06-16T07:43:54.249Z,19.30
2018-06-16T07:46:23.300Z,19.50
2018-06-16T07:48:52.774Z,19.60
2018-06-16T07:51:29.690Z,19.80
2018-06-16T07:54:10.610Z,19.90
2018-06-16T07:59:18.496Z,20.10
2018-06-16T08:01:47.532Z,20.20
2018-06-16T08:04:16.569Z,20.40
2018-06-16T08:06:46.219Z,20.50
2018-06-16T08:09:28.248Z,20.70
2018-06-16T08:11:58.029Z,20.80
2018-06-16T08:14:27.857Z,20.90
2018-06-16T08:16:57.124Z,21.10
2018-06-16T08:19:26.084Z,21.20
2018-06-16T08:21:55.204Z,21.30
2018-06-16T08:24:24.296Z,21.40
2018-06-16T08:26:55.288Z,21.50
2018-06-16T08:29:25.021Z,21.60
2018-06-16T08:31:54.520Z,21.70
2018-06-16T08:34:24.591Z,21.90
2018-06-16T08:36:54.649Z,22.00
2018-06-16T08:39:24.693Z,22.20
2018-06-16T08:41:53.595Z,22.30
2018-06-16T08:44:23.039Z,22.40
2018-06-16T08:46:52.117Z,22.50
2018-06-16T08:49:24.077Z,22.60
2018-06-16T08:51:53.449Z,22.70
2018-06-16T08:54:23.238Z,22.70
2018-06-16T08:56:52.569Z,22.80
2018-06-16T08:59:21.665Z,23.00
2018-06-16T09:01:50.640Z,23.00
2018-06-16T09:04:20.379Z,22.90
2018-06-16T09:06:50.513Z,23.00
2018-06-16T09:09:19.900Z,23.10
2018-06-16T09:11:49.068Z,23.20
2018-06-16T09:14:18.353Z,23.20
2018-06-16T09:16:47.369Z,23.30
2018-06-16T09:19:16.345Z,23.30
2018-06-16T09:21:45.661Z,23.40
2018-06-16T09:24:14.750Z,23.50
2018-06-16T09:26:43.957Z,23.60
2018-06-16T09:29:13.268Z,23.70
2018-06-16T09:31:42.693Z,23.80
2018-06-16T09:34:11.750Z,24.00
2018-06-16T09:36:41.810Z,24.10
2018-06-16T09:39:12.681Z,24.10
2018-06-16T09:41:42.668Z,23.90
2018-06-16T09:44:11.835Z,23.80
2018-06-16T09:46:41.055Z,23.90
2018-06-16T09:49:11.054Z,24.00
2018-06-16T09:51:40.151Z,24.10
2018-06-16T09:54:09.248Z,24.20
2018-06-16T09:56:38.295Z,24.40
2018-06-16T09:59:07.771Z,24.40
2018-06-16T10:01:37.152Z,24.50
2018-06-16T10:09:04.046Z,24.50
2018-06-16T10:11:33.622Z,24.40
2018-06-16T10:14:02.873Z,24.50
2018-06-16T10:16:32.916Z,24.70
2018-06-16T10:19:02.080Z,24.80
2018-06-16T10:21:32.052Z,24.80
2018-06-16T10:24:01.461Z,24.80
2018-06-16T10:26:31.022Z,25.00
2018-06-16T10:29:00.163Z,25.10
2018-06-16T10:31:29.589Z,25.30
2018-06-16T10:33:58.689Z,25.70
2018-06-16T10:36:27.950Z,25.90
2018-06-16T10:38:56.942Z,26.20
2018-06-16T10:41:26.670Z,26.40
2018-06-16T10:46:24.341Z,26.90
2018-06-16T10:48:54.112Z,27.20
2018-06-16T10:51:23.040Z,27.10
2018-06-16T10:53:52.210Z,27.10
2018-06-16T10:56:21.545Z,27.20
2018-06-16T10:58:50.556Z,27.00
2018-06-16T11:01:20.733Z,27.00
2018-06-16T11:03:50.022Z,26.80
2018-06-16T11:06:19.797Z,26.80
2018-06-16T11:08:49.524Z,26.90
2018-06-16T11:11:18.633Z,27.10
2018-06-16T11:13:47.760Z,27.30
2018-06-16T11:16:17.473Z,27.30
2018-06-16T11:18:47.042Z,27.30
2018-06-16T11:21:16.060Z,27.20
2018-06-16T11:23:45.136Z,27.20
2018-06-16T11:26:14.916Z,27.20
2018-06-16T11:28:44.382Z,27.40
2018-06-16T11:31:13.652Z,27.30
2018-06-16T11:33:43.124Z,27.30
2018-06-16T11:36:12.256Z,27.30
2018-06-16T11:38:41.381Z,27.30
2018-06-16T11:41:10.749Z,27.30
2018-06-16T11:43:39.832Z,27.30
2018-06-16T11:46:08.977Z,27.40
2018-06-16T11:48:38.181Z,27.50
2018-06-16T11:51:07.265Z,27.50
2018-06-16T11:53:36.322Z,27.60
2018-06-16T11:56:05.493Z,27.80
2018-06-16T11:58:34.601Z,28.00
2018-06-16T12:01:03.900Z,28.10
2018-06-16T12:03:33.000Z,28.00
2018-06-16T12:06:02.230Z,27.90
2018-06-16T12:08:31.957Z,27.80
2018-06-16T12:13:30.463Z,27.20
2018-06-16T12:15:59.684Z,27.30
2018-06-16T12:18:29.036Z,27.60
2018-06-16T12:20:58.770Z,27.80
2018-06-16T12:23:27.859Z,27.70
2018-06-16T12:25:56.848Z,27.60
2018-06-16T12:28:26.076Z,27.30
2018-06-16T12:30:55.229Z,27.10
2018-06-16T12:33:24.544Z,26.90
2018-06-16T12:35:53.677Z,27.00
2018-06-16T12:38:23.093Z,26.90
2018-06-16T12:40:52.737Z,26.90
2018-06-16T12:43:22.570Z,27.10
2018-06-16T12:45:51.634Z,27.20
2018-06-16T12:48:20.723Z,27.60
2018-06-16T12:50:49.848Z,27.70
2018-06-16T12:53:19.043Z,27.80
2018-06-16T12:55:48.728Z,27.80
2018-06-16T12:58:18.134Z,27.70
2018-06-16T13:00:47.229Z,27.50
2018-06-16T13:03:16.429Z,27.10
2018-06-16T13:05:45.937Z,27.00
2018-06-16T13:08:15.768Z,26.80
2018-06-16T13:10:44.753Z,26.90
2018-06-16T13:13:14.398Z,26.90
2018-06-16T13:15:43.490Z,26.90
2018-06-16T13:18:13.311Z,27.00
2018-06-16T13:20:42.350Z,27.10
2018-06-16T13:23:11.344Z,27.20
2018-06-16T13:25:40.475Z,27.20
2018-06-16T13:28:09.630Z,27.30
2018-06-16T13:30:39.261Z,27.30
2018-06-16T13:33:08.860Z,27.50
2018-06-16T13:35:38.018Z,27.50
2018-06-16T13:38:08.288Z,27.30
2018-06-16T13:40:37.455Z,27.30
2018-06-16T13:43:07.147Z,27.00
2018-06-16T13:45:36.237Z,27.00
2018-06-16T13:48:05.365Z,26.80
2018-06-16T13:50:34.407Z,26.80
2018-06-16T13:53:04.084Z,27.00
2018-06-16T13:55:33.105Z,27.00
2018-06-16T13:58:02.923Z,27.00
2018-06-16T14:00:32.246Z,27.00
2018-06-16T14:03:01.768Z,27.10
2018-06-16T14:05:31.240Z,27.20
2018-06-16T14:08:00.237Z,27.10
2018-06-16T14:10:29.885Z,27.10
2018-06-16T14:12:58.881Z,27.10
2018-06-16T14:15:27.863Z,27.10
2018-06-16T14:17:57.327Z,27.20
2018-06-16T14:20:30.450Z,27.30
2018-06-16T14:22:59.938Z,27.20
2018-06-16T14:25:29.383Z,27.10
2018-06-16T14:27:58.905Z,27.10
2018-06-16T14:32:57.369Z,27.10
2018-06-16T14:35:26.481Z,27.10
2018-06-16T14:37:55.733Z,27.00
2018-06-16T14:40:25.216Z,27.00
2018-06-16T14:42:54.670Z,26.90
2018-06-16T14:45:23.767Z,26.80
2018-06-16T14:47:53.749Z,26.80
2018-06-16T14:50:23.343Z,26.60
2018-06-16T14:52:52.544Z,26.60
2018-06-16T14:55:21.782Z,26.60
2018-06-16T14:57:50.995Z,26.50
2018-06-16T15:00:20.763Z,26.60
2018-06-16T15:02:49.848Z,26.50
2018-06-16T15:05:18.912Z,26.40
2018-06-16T15:07:48.204Z,26.50
2018-06-16T15:10:17.701Z,26.40
2018-06-16T15:12:46.980Z,26.40
2018-06-16T15:15:16.352Z,26.30
2018-06-16T15:17:45.451Z,26.40
2018-06-16T15:20:14.786Z,26.20
2018-06-16T15:22:44.101Z,26.20
2018-06-16T15:25:13.168Z,26.20
2018-06-16T15:27:42.408Z,26.10
2018-06-16T15:30:13.048Z,26.10
2018-06-16T15:32:42.244Z,26.10
2018-06-16T15:35:11.404Z,26.00
2018-06-16T15:37:40.597Z,25.90
2018-06-16T15:40:09.843Z,25.80
2018-06-16T15:42:38.880Z,25.70
2018-06-16T15:45:08.328Z,25.60
2018-06-16T15:47:38.913Z,25.60
2018-06-16T15:50:09.142Z,25.70
2018-06-16T15:52:38.637Z,25.80
2018-06-16T15:55:08.465Z,25.70
2018-06-16T15:57:37.777Z,25.80
2018-06-16T16:00:08.238Z,25.60
2018-06-16T16:02:37.394Z,25.60
2018-06-16T16:05:07.515Z,25.50
2018-06-16T16:07:37.077Z,25.50
2018-06-16T16:10:06.306Z,25.40
2018-06-16T16:12:35.409Z,25.30
2018-06-16T16:15:04.590Z,25.30
2018-06-16T16:17:33.940Z,25.30
2018-06-16T16:20:03.736Z,25.20
2018-06-16T16:22:34.047Z,25.10
2018-06-16T16:25:04.163Z,25.00
2018-06-16T16:27:33.380Z,25.00
2018-06-16T16:32:32.405Z,24.90
2018-06-16T16:37:30.250Z,24.90
2018-06-16T16:40:00.026Z,24.90
2018-06-16T16:42:29.506Z,24.80
2018-06-16T16:44:58.872Z,24.90
2018-06-16T16:47:29.443Z,24.90
2018-06-16T16:49:58.692Z,24.90
2018-06-16T16:52:28.563Z,24.90
2018-06-16T16:54:57.921Z,24.90
2018-06-16T16:59:55.500Z,24.80
2018-06-16T17:02:24.698Z,24.80
2018-06-16T17:04:55.114Z,24.70
2018-06-16T17:07:24.776Z,24.70
2018-06-16T17:09:55.653Z,24.70
2018-06-16T17:12:26.696Z,24.60
2018-06-16T17:14:56.664Z,24.60
2018-06-16T17:17:26.687Z,24.60
2018-06-16T17:19:56.624Z,24.50
2018-06-16T17:22:27.977Z,24.50
2018-06-16T17:24:59.083Z,24.50
2018-06-16T17:27:28.933Z,24.50
2018-06-16T17:29:59.649Z,24.50
2018-06-16T17:32:29.362Z,24.40
2018-06-16T17:34:58.603Z,24.40
2018-06-16T17:37:30.676Z,24.40
2018-06-16T17:40:02.232Z,24.30
2018-06-16T17:42:32.074Z,24.30
2018-06-16T17:45:02.010Z,24.20
2018-06-16T17:47:32.336Z,24.10
2018-06-16T17:50:03.184Z,24.00
2018-06-16T17:52:33.166Z,23.90
2018-06-16T17:55:02.378Z,23.80
2018-06-16T17:57:34.805Z,23.70
2018-06-16T18:00:08.720Z,23.60
2018-06-16T18:02:38.242Z,23.50
2018-06-16T18:05:08.080Z,23.50
2018-06-16T18:07:37.576Z,23.40
2018-06-16T18:10:07.564Z,23.30
2018-06-16T18:12:36.733Z,23.20
2018-06-16T18:17:41.940Z,23.10
2018-06-16T18:20:14.416Z,23.00
2018-06-16T18:22:46.074Z,23.00
2018-06-16T18:25:18.552Z,22.90
2018-06-16T18:27:49.573Z,22.90
2018-06-16T18:30:24.906Z,22.80
2018-06-16T18:32:56.812Z,22.70
2018-06-16T18:35:28.901Z,22.60
2018-06-16T18:38:01.432Z,22.50
2018-06-16T18:40:33.480Z,22.50
2018-06-16T18:43:05.206Z,22.40
2018-06-16T18:45:36.624Z,22.30
2018-06-16T18:48:08.771Z,22.20
2018-06-16T18:50:40.844Z,22.10
2018-06-16T18:53:12.207Z,22.00
2018-06-16T18:55:44.242Z,21.90
2018-06-16T19:00:46.973Z,21.80
2018-06-16T19:03:17.899Z,21.70
2018-06-16T19:05:49.827Z,21.60
2018-06-16T19:08:21.930Z,21.60
2018-06-16T19:10:53.588Z,21.50
2018-06-16T19:13:26.612Z,21.40
2018-06-16T19:15:57.966Z,21.40
2018-06-16T19:18:29.518Z,21.30
2018-06-16T19:21:00.074Z,21.20
2018-06-16T19:23:32.285Z,21.20
2018-06-16T19:26:03.986Z,21.10
2018-06-16T19:28:36.070Z,21.10
2018-06-16T19:31:07.314Z,21.00
2018-06-16T19:33:38.058Z,20.90
2018-06-16T19:36:08.911Z,20.80
2018-06-16T19:38:40.847Z,20.70
2018-06-16T19:41:12.754Z,20.60
2018-06-16T19:43:44.543Z,20.50
2018-06-16T19:46:17.960Z,20.50
2018-06-16T19:48:50.490Z,20.40
2018-06-16T19:51:20.793Z,20.40
2018-06-16T19:53:51.663Z,20.30
2018-06-16T19:56:22.909Z,20.20
2018-06-16T19:58:52.998Z,20.10
2018-06-16T20:01:24.863Z,20.00
2018-06-16T20:03:54.264Z,20.00
2018-06-16T20:06:25.111Z,19.90
2018-06-16T20:08:55.493Z,19.90
2018-06-16T20:11:25.470Z,19.90
2018-06-16T20:13:56.981Z,19.80
2018-06-16T20:16:28.206Z,19.80
2018-06-16T20:18:59.296Z,19.80
2018-06-16T20:21:29.182Z,19.60
2018-06-16T20:23:59.681Z,19.60
2018-06-16T20:26:29.383Z,19.50
2018-06-16T20:28:59.459Z,19.50
2018-06-16T20:31:29.143Z,19.50
2018-06-16T20:33:59.041Z,19.40
2018-06-16T20:36:28.739Z,19.40
2018-06-16T20:38:58.250Z,19.40
2018-06-16T20:41:27.646Z,19.30
2018-06-16T20:43:56.891Z,19.30
2018-06-16T20:46:25.993Z,19.30
2018-06-16T20:48:55.232Z,19.20
2018-06-16T20:51:24.248Z,19.20
2018-06-16T20:53:53.655Z,19.10
2018-06-16T20:56:22.817Z,19.00
2018-06-16T20:58:52.018Z,19.00
2018-06-16T21:01:21.347Z,19.00
2018-06-16T21:03:50.743Z,18.90
2018-06-16T21:06:20.205Z,18.80
2018-06-16T21:08:49.578Z,18.70
2018-06-16T21:11:18.660Z,18.60
2018-06-16T21:13:48.274Z,18.50
2018-06-16T21:16:17.756Z,18.40
2018-06-16T21:18:46.761Z,18.40
2018-06-16T21:21:16.677Z,18.40
2018-06-16T21:23:46.700Z,18.40
2018-06-16T21:26:15.916Z,18.30
2018-06-16T21:28:45.677Z,18.30
2018-06-16T21:31:15.234Z,18.30
2018-06-16T21:33:44.673Z,18.30
2018-06-16T21:36:14.814Z,18.30
2018-06-16T21:38:45.071Z,18.20
2018-06-16T21:41:15.199Z,18.30
2018-06-16T21:43:45.858Z,18.20
2018-06-16T21:46:15.645Z,18.20
2018-06-16T21:51:15.764Z,18.10
2018-06-16T21:53:46.070Z,18.00
2018-06-16T21:56:15.599Z,17.90
2018-06-16T21:58:44.903Z,17.90
2018-06-16T22:03:43.997Z,17.90
2018-06-16T22:06:13.277Z,17.90
2018-06-16T22:08:43.073Z,17.80
2018-06-16T22:11:12.519Z,17.70
2018-06-16T22:13:41.943Z,17.60
2018-06-16T22:16:11.280Z,17.50
2018-06-16T22:18:40.408Z,17.40
2018-06-16T22:21:09.577Z,17.30
2018-06-16T22:23:39.419Z,17.30
2018-06-16T22:26:08.944Z,17.20
2018-06-16T22:28:38.832Z,17.10
2018-06-16T22:31:08.093Z,17.10
2018-06-16T22:33:37.324Z,17.00
2018-06-16T22:36:06.348Z,17.00
2018-06-16T22:38:35.512Z,17.10
2018-06-16T22:41:04.688Z,17.00
2018-06-16T22:43:34.349Z,17.00
2018-06-16T22:46:05.484Z,17.10
2018-06-16T22:48:35.676Z,17.00
2018-06-16T22:51:05.221Z,17.00
2018-06-16T22:53:34.711Z,17.00
2018-06-16T22:56:05.752Z,16.90
2018-06-16T22:58:35.716Z,16.90
2018-06-16T23:01:05.450Z,16.80
2018-06-16T23:03:35.080Z,16.80
2018-06-16T23:06:04.180Z,16.80
2018-06-16T23:08:33.237Z,16.70
2018-06-16T23:11:02.382Z,16.60
2018-06-16T23:13:31.532Z,16.50
2018-06-16T23:16:00.636Z,16.50
2018-06-16T23:18:29.749Z,16.40
2018-06-16T23:20:59.069Z,16.40
2018-06-16T23:23:28.141Z,16.30
2018-06-16T23:25:57.669Z,16.30
2018-06-16T23:28:27.052Z,16.20
2018-06-16T23:30:57.058Z,16.20
2018-06-16T23:33:26.264Z,16.10
2018-06-16T23:35:56.251Z,16.10
2018-06-16T23:38:25.700Z,16.10
2018-06-16T23:40:54.948Z,16.00
2018-06-16T23:43:24.248Z,16.00
2018-06-16T23:45:53.772Z,16.10
2018-06-16T23:48:22.874Z,16.10
2018-06-16T23:50:52.608Z,16.00
2018-06-16T23:53:21.911Z,16.10
2018-06-16T23:55:51.313Z,16.00
2018-06-16T23:58:20.460Z,16.00
